sensor_id;sensor_type;location;lat;lon;timestamp;P1;durP1;ratioP1;P2;durP2;ratioP2
49392;SDS011;35268;42.642;23.308;2024-02-21T00:01:21;9.07;;;4.35;;
49392;SDS011;35268;42.642;23.308;2024-02-21T00:03:47;6.07;;;3.72;;
49392;SDS011;35268;42.642;23.308;2024-02-21T00:06:12;5.03;;;3.30;;
49392;SDS011;35268;42.642;23.308;2024-02-21T00:08:38;6.30;;;3.67;;
49392;SDS011;35268;42.642;23.308;2024-02-21T00:11:03;5.55;;;3.00;;
49392;SDS011;35268;42.642;23.308;2024-02-21T00:13:29;6.00;;;3.28;;
49392;SDS011;35268;42.642;23.308;2024-02-21T00:15:54;5.20;;;3.20;;
49392;SDS011;35268;42.642;23.308;2024-02-21T00:18:20;7.68;;;3.20;;
49392;SDS011;35268;42.642;23.308;2024-02-21T00:20:45;5.85;;;2.95;;
49392;SDS011;35268;42.642;23.308;2024-02-21T00:23:11;6.93;;;3.50;;
49392;SDS011;35268;42.642;23.308;2024-02-21T00:25:36;6.30;;;3.60;;
49392;SDS011;35268;42.642;23.308;2024-02-21T00:28:02;7.70;;;3.40;;
49392;SDS011;35268;42.642;23.308;2024-02-21T00:30:28;5.82;;;2.92;;
49392;SDS011;35268;42.642;23.308;2024-02-21T00:32:53;7.55;;;3.95;;
49392;SDS011;35268;42.642;23.308;2024-02-21T00:35:18;6.50;;;3.00;;
49392;SDS011;35268;42.642;23.308;2024-02-21T00:37:44;7.18;;;4.38;;
49392;SDS011;35268;42.642;23.308;2024-02-21T00:40:09;8.27;;;3.95;;
49392;SDS011;35268;42.642;23.308;2024-02-21T00:42:35;7.55;;;3.70;;
49392;SDS011;35268;42.642;23.308;2024-02-21T00:45:01;8.40;;;4.05;;
49392;SDS011;35268;42.642;23.308;2024-02-21T00:47:26;6.47;;;3.30;;
49392;SDS011;35268;42.642;23.308;2024-02-21T00:49:52;6.25;;;4.15;;
49392;SDS011;35268;42.642;23.308;2024-02-21T00:52:17;6.15;;;3.60;;
49392;SDS011;35268;42.642;23.308;2024-02-21T00:54:43;7.38;;;3.60;;
49392;SDS011;35268;42.642;23.308;2024-02-21T00:57:08;8.20;;;4.13;;
49392;SDS011;35268;42.642;23.308;2024-02-21T00:59:34;7.35;;;4.13;;
49392;SDS011;35268;42.642;23.308;2024-02-21T01:01:59;8.43;;;4.53;;
49392;SDS011;35268;42.642;23.308;2024-02-21T01:04:24;7.97;;;4.53;;
49392;SDS011;35268;42.642;23.308;2024-02-21T01:06:50;7.68;;;4.07;;
49392;SDS011;35268;42.642;23.308;2024-02-21T01:09:15;8.95;;;4.50;;
49392;SDS011;35268;42.642;23.308;2024-02-21T01:11:41;7.85;;;4.65;;
49392;SDS011;35268;42.642;23.308;2024-02-21T01:14:06;8.85;;;4.88;;
49392;SDS011;35268;42.642;23.308;2024-02-21T01:16:31;9.75;;;4.88;;
49392;SDS011;35268;42.642;23.308;2024-02-21T01:18:57;7.57;;;4.10;;
49392;SDS011;35268;42.642;23.308;2024-02-21T01:21:22;8.40;;;4.80;;
49392;SDS011;35268;42.642;23.308;2024-02-21T01:23:48;8.80;;;5.07;;
49392;SDS011;35268;42.642;23.308;2024-02-21T01:26:13;8.90;;;4.60;;
49392;SDS011;35268;42.642;23.308;2024-02-21T01:28:40;7.50;;;4.53;;
49392;SDS011;35268;42.642;23.308;2024-02-21T01:31:06;8.23;;;4.30;;
49392;SDS011;35268;42.642;23.308;2024-02-21T01:33:32;6.22;;;3.78;;
49392;SDS011;35268;42.642;23.308;2024-02-21T01:36:01;8.00;;;4.88;;
49392;SDS011;35268;42.642;23.308;2024-02-21T01:38:29;7.65;;;4.70;;
49392;SDS011;35268;42.642;23.308;2024-02-21T01:40:54;8.32;;;5.07;;
49392;SDS011;35268;42.642;23.308;2024-02-21T01:43:20;8.65;;;5.28;;
49392;SDS011;35268;42.642;23.308;2024-02-21T01:45:52;9.73;;;5.57;;
49392;SDS011;35268;42.642;23.308;2024-02-21T01:48:20;12.75;;;6.10;;
49392;SDS011;35268;42.642;23.308;2024-02-21T01:50:47;10.60;;;6.53;;
49392;SDS011;35268;42.642;23.308;2024-02-21T01:53:25;10.55;;;6.55;;
49392;SDS011;35268;42.642;23.308;2024-02-21T01:55:54;12.30;;;7.07;;
49392;SDS011;35268;42.642;23.308;2024-02-21T01:58:20;14.65;;;7.03;;
49392;SDS011;35268;42.642;23.308;2024-02-21T02:00:46;13.32;;;7.47;;
49392;SDS011;35268;42.642;23.308;2024-02-21T02:03:13;14.43;;;8.32;;
49392;SDS011;35268;42.642;23.308;2024-02-21T02:05:45;12.35;;;7.38;;
49392;SDS011;35268;42.642;23.308;2024-02-21T02:08:12;14.00;;;7.40;;
49392;SDS011;35268;42.642;23.308;2024-02-21T02:10:39;15.63;;;8.20;;
49392;SDS011;35268;42.642;23.308;2024-02-21T02:13:06;15.57;;;8.10;;
49392;SDS011;35268;42.642;23.308;2024-02-21T02:15:41;12.27;;;6.93;;
49392;SDS011;35268;42.642;23.308;2024-02-21T02:18:11;16.02;;;8.18;;
49392;SDS011;35268;42.642;23.308;2024-02-21T02:20:37;15.25;;;8.38;;
49392;SDS011;35268;42.642;23.308;2024-02-21T02:23:06;13.93;;;8.10;;
49392;SDS011;35268;42.642;23.308;2024-02-21T02:25:35;17.48;;;9.10;;
49392;SDS011;35268;42.642;23.308;2024-02-21T02:28:01;14.13;;;8.68;;
49392;SDS011;35268;42.642;23.308;2024-02-21T02:30:27;15.18;;;8.07;;
49392;SDS011;35268;42.642;23.308;2024-02-21T02:32:53;14.50;;;8.55;;
49392;SDS011;35268;42.642;23.308;2024-02-21T02:35:18;14.75;;;8.75;;
49392;SDS011;35268;42.642;23.308;2024-02-21T02:37:50;15.88;;;9.45;;
49392;SDS011;35268;42.642;23.308;2024-02-21T02:40:15;17.48;;;9.10;;
49392;SDS011;35268;42.642;23.308;2024-02-21T02:42:41;15.68;;;9.02;;
49392;SDS011;35268;42.642;23.308;2024-02-21T02:45:06;16.20;;;9.02;;
49392;SDS011;35268;42.642;23.308;2024-02-21T02:47:32;17.25;;;9.23;;
49392;SDS011;35268;42.642;23.308;2024-02-21T02:49:59;15.55;;;8.52;;
49392;SDS011;35268;42.642;23.308;2024-02-21T02:52:25;19.35;;;9.75;;
49392;SDS011;35268;42.642;23.308;2024-02-21T02:54:50;16.48;;;9.40;;
49392;SDS011;35268;42.642;23.308;2024-02-21T02:57:17;16.73;;;9.25;;
49392;SDS011;35268;42.642;23.308;2024-02-21T02:59:47;15.95;;;8.98;;
49392;SDS011;35268;42.642;23.308;2024-02-21T03:02:16;19.40;;;9.88;;
49392;SDS011;35268;42.642;23.308;2024-02-21T03:04:41;15.35;;;9.38;;
49392;SDS011;35268;42.642;23.308;2024-02-21T03:07:06;16.25;;;9.27;;
49392;SDS011;35268;42.642;23.308;2024-02-21T03:09:32;16.83;;;9.88;;
49392;SDS011;35268;42.642;23.308;2024-02-21T03:11:57;13.20;;;7.93;;
49392;SDS011;35268;42.642;23.308;2024-02-21T03:14:28;18.58;;;10.20;;
49392;SDS011;35268;42.642;23.308;2024-02-21T03:16:53;15.70;;;8.85;;
49392;SDS011;35268;42.642;23.308;2024-02-21T03:19:19;13.98;;;8.50;;
49392;SDS011;35268;42.642;23.308;2024-02-21T03:21:44;15.88;;;9.88;;
49392;SDS011;35268;42.642;23.308;2024-02-21T03:24:09;15.27;;;9.48;;
49392;SDS011;35268;42.642;23.308;2024-02-21T03:26:35;19.73;;;9.50;;
49392;SDS011;35268;42.642;23.308;2024-02-21T03:29:00;17.00;;;9.25;;
49392;SDS011;35268;42.642;23.308;2024-02-21T03:31:26;14.80;;;9.15;;
49392;SDS011;35268;42.642;23.308;2024-02-21T03:33:51;15.98;;;8.80;;
49392;SDS011;35268;42.642;23.308;2024-02-21T03:36:16;16.95;;;8.60;;
49392;SDS011;35268;42.642;23.308;2024-02-21T03:38:42;17.48;;;9.43;;
49392;SDS011;35268;42.642;23.308;2024-02-21T03:41:07;14.70;;;9.38;;
49392;SDS011;35268;42.642;23.308;2024-02-21T03:43:33;14.48;;;8.90;;
49392;SDS011;35268;42.642;23.308;2024-02-21T03:45:58;15.98;;;8.98;;
49392;SDS011;35268;42.642;23.308;2024-02-21T03:48:24;18.27;;;10.48;;
49392;SDS011;35268;42.642;23.308;2024-02-21T03:50:49;18.88;;;8.52;;
49392;SDS011;35268;42.642;23.308;2024-02-21T03:53:15;17.85;;;9.80;;
49392;SDS011;35268;42.642;23.308;2024-02-21T03:55:40;14.43;;;8.00;;
49392;SDS011;35268;42.642;23.308;2024-02-21T03:58:05;16.58;;;9.98;;
49392;SDS011;35268;42.642;23.308;2024-02-21T04:00:31;17.48;;;9.23;;
49392;SDS011;35268;42.642;23.308;2024-02-21T04:02:56;16.90;;;9.40;;
49392;SDS011;35268;42.642;23.308;2024-02-21T04:05:22;22.60;;;9.85;;
49392;SDS011;35268;42.642;23.308;2024-02-21T04:07:47;20.08;;;10.85;;
49392;SDS011;35268;42.642;23.308;2024-02-21T04:10:12;16.88;;;10.10;;
49392;SDS011;35268;42.642;23.308;2024-02-21T04:12:38;21.48;;;10.45;;
49392;SDS011;35268;42.642;23.308;2024-02-21T04:15:04;18.42;;;10.68;;
49392;SDS011;35268;42.642;23.308;2024-02-21T04:17:29;18.33;;;10.52;;
49392;SDS011;35268;42.642;23.308;2024-02-21T04:20:01;18.35;;;10.57;;
49392;SDS011;35268;42.642;23.308;2024-02-21T04:22:30;19.10;;;11.32;;
49392;SDS011;35268;42.642;23.308;2024-02-21T04:24:56;21.58;;;11.30;;
49392;SDS011;35268;42.642;23.308;2024-02-21T04:27:22;25.25;;;10.50;;
49392;SDS011;35268;42.642;23.308;2024-02-21T04:29:47;22.88;;;12.43;;
49392;SDS011;35268;42.642;23.308;2024-02-21T04:32:13;16.67;;;9.73;;
49392;SDS011;35268;42.642;23.308;2024-02-21T04:34:38;19.45;;;11.30;;
49392;SDS011;35268;42.642;23.308;2024-02-21T04:37:06;21.08;;;12.07;;
49392;SDS011;35268;42.642;23.308;2024-02-21T04:39:32;24.48;;;12.05;;
49392;SDS011;35268;42.642;23.308;2024-02-21T04:41:57;19.42;;;11.82;;
49392;SDS011;35268;42.642;23.308;2024-02-21T04:44:22;20.13;;;11.45;;
49392;SDS011;35268;42.642;23.308;2024-02-21T04:46:48;21.13;;;12.20;;
49392;SDS011;35268;42.642;23.308;2024-02-21T04:49:13;28.70;;;12.57;;
49392;SDS011;35268;42.642;23.308;2024-02-21T04:51:39;24.05;;;12.15;;
49392;SDS011;35268;42.642;23.308;2024-02-21T04:54:06;19.05;;;10.80;;
49392;SDS011;35268;42.642;23.308;2024-02-21T04:56:31;20.67;;;10.95;;
49392;SDS011;35268;42.642;23.308;2024-02-21T04:58:56;19.17;;;11.80;;
49392;SDS011;35268;42.642;23.308;2024-02-21T05:01:22;23.15;;;11.70;;
49392;SDS011;35268;42.642;23.308;2024-02-21T05:03:47;19.02;;;10.98;;
49392;SDS011;35268;42.642;23.308;2024-02-21T05:06:13;22.73;;;11.90;;
49392;SDS011;35268;42.642;23.308;2024-02-21T05:08:38;23.20;;;12.02;;
49392;SDS011;35268;42.642;23.308;2024-02-21T05:11:04;23.50;;;12.32;;
49392;SDS011;35268;42.642;23.308;2024-02-21T05:13:30;24.17;;;11.88;;
49392;SDS011;35268;42.642;23.308;2024-02-21T05:15:55;23.25;;;11.57;;
49392;SDS011;35268;42.642;23.308;2024-02-21T05:18:21;20.15;;;11.40;;
49392;SDS011;35268;42.642;23.308;2024-02-21T05:20:46;20.77;;;11.25;;
49392;SDS011;35268;42.642;23.308;2024-02-21T05:23:11;19.85;;;10.85;;
49392;SDS011;35268;42.642;23.308;2024-02-21T05:25:37;21.70;;;10.45;;
49392;SDS011;35268;42.642;23.308;2024-02-21T05:28:03;18.75;;;10.70;;
49392;SDS011;35268;42.642;23.308;2024-02-21T05:30:31;17.17;;;9.25;;
49392;SDS011;35268;42.642;23.308;2024-02-21T05:32:56;16.23;;;9.60;;
49392;SDS011;35268;42.642;23.308;2024-02-21T05:35:28;18.13;;;9.63;;
49392;SDS011;35268;42.642;23.308;2024-02-21T05:37:53;17.77;;;10.88;;
49392;SDS011;35268;42.642;23.308;2024-02-21T05:40:19;17.27;;;10.27;;
49392;SDS011;35268;42.642;23.308;2024-02-21T05:42:44;16.55;;;9.40;;
49392;SDS011;35268;42.642;23.308;2024-02-21T05:45:10;15.95;;;9.18;;
49392;SDS011;35268;42.642;23.308;2024-02-21T05:47:35;17.17;;;10.57;;
49392;SDS011;35268;42.642;23.308;2024-02-21T05:50:00;18.65;;;9.63;;
49392;SDS011;35268;42.642;23.308;2024-02-21T05:52:26;18.52;;;10.13;;
49392;SDS011;35268;42.642;23.308;2024-02-21T05:54:51;16.17;;;9.27;;
49392;SDS011;35268;42.642;23.308;2024-02-21T05:57:17;18.10;;;10.15;;
49392;SDS011;35268;42.642;23.308;2024-02-21T05:59:43;19.52;;;10.07;;
49392;SDS011;35268;42.642;23.308;2024-02-21T06:02:08;18.35;;;10.35;;
49392;SDS011;35268;42.642;23.308;2024-02-21T06:04:34;23.15;;;10.57;;
49392;SDS011;35268;42.642;23.308;2024-02-21T06:07:00;13.65;;;8.00;;
49392;SDS011;35268;42.642;23.308;2024-02-21T06:09:26;18.65;;;10.57;;
49392;SDS011;35268;42.642;23.308;2024-02-21T06:11:51;17.02;;;9.45;;
49392;SDS011;35268;42.642;23.308;2024-02-21T06:14:17;21.90;;;10.30;;
49392;SDS011;35268;42.642;23.308;2024-02-21T06:16:43;19.92;;;9.93;;
49392;SDS011;35268;42.642;23.308;2024-02-21T06:19:09;17.20;;;10.50;;
49392;SDS011;35268;42.642;23.308;2024-02-21T06:21:34;20.15;;;10.00;;
49392;SDS011;35268;42.642;23.308;2024-02-21T06:23:59;23.23;;;11.10;;
49392;SDS011;35268;42.642;23.308;2024-02-21T06:26:25;16.15;;;9.45;;
49392;SDS011;35268;42.642;23.308;2024-02-21T06:28:50;19.25;;;10.35;;
49392;SDS011;35268;42.642;23.308;2024-02-21T06:31:15;19.00;;;9.73;;
49392;SDS011;35268;42.642;23.308;2024-02-21T06:33:41;17.35;;;10.10;;
49392;SDS011;35268;42.642;23.308;2024-02-21T06:36:07;20.58;;;11.32;;
49392;SDS011;35268;42.642;23.308;2024-02-21T06:38:33;20.00;;;10.55;;
49392;SDS011;35268;42.642;23.308;2024-02-21T06:40:59;20.42;;;10.70;;
49392;SDS011;35268;42.642;23.308;2024-02-21T06:43:25;20.48;;;11.60;;
49392;SDS011;35268;42.642;23.308;2024-02-21T06:45:51;19.25;;;10.90;;
49392;SDS011;35268;42.642;23.308;2024-02-21T06:48:17;22.80;;;11.77;;
49392;SDS011;35268;42.642;23.308;2024-02-21T06:50:44;27.83;;;11.18;;
49392;SDS011;35268;42.642;23.308;2024-02-21T06:53:09;26.52;;;11.73;;
49392;SDS011;35268;42.642;23.308;2024-02-21T06:55:35;22.65;;;11.68;;
49392;SDS011;35268;42.642;23.308;2024-02-21T06:58:00;21.15;;;11.20;;
49392;SDS011;35268;42.642;23.308;2024-02-21T07:00:27;17.67;;;10.30;;
49392;SDS011;35268;42.642;23.308;2024-02-21T07:02:53;21.88;;;11.05;;
49392;SDS011;35268;42.642;23.308;2024-02-21T07:05:19;24.95;;;12.40;;
49392;SDS011;35268;42.642;23.308;2024-02-21T07:07:44;20.38;;;11.77;;
49392;SDS011;35268;42.642;23.308;2024-02-21T07:10:09;22.75;;;12.90;;
49392;SDS011;35268;42.642;23.308;2024-02-21T07:12:36;26.35;;;11.90;;
49392;SDS011;35268;42.642;23.308;2024-02-21T07:15:03;22.25;;;12.18;;
49392;SDS011;35268;42.642;23.308;2024-02-21T07:17:29;30.45;;;12.80;;
49392;SDS011;35268;42.642;23.308;2024-02-21T07:19:55;29.95;;;13.38;;
49392;SDS011;35268;42.642;23.308;2024-02-21T07:22:22;24.08;;;12.57;;
49392;SDS011;35268;42.642;23.308;2024-02-21T07:24:47;24.30;;;12.27;;
49392;SDS011;35268;42.642;23.308;2024-02-21T07:27:14;26.98;;;12.55;;
49392;SDS011;35268;42.642;23.308;2024-02-21T07:29:40;28.65;;;13.63;;
49392;SDS011;35268;42.642;23.308;2024-02-21T07:32:06;26.95;;;13.40;;
49392;SDS011;35268;42.642;23.308;2024-02-21T07:34:31;23.35;;;12.10;;
49392;SDS011;35268;42.642;23.308;2024-02-21T07:36:57;21.40;;;11.90;;
49392;SDS011;35268;42.642;23.308;2024-02-21T07:39:22;19.35;;;11.30;;
49392;SDS011;35268;42.642;23.308;2024-02-21T07:41:48;23.85;;;12.15;;
49392;SDS011;35268;42.642;23.308;2024-02-21T07:44:14;21.17;;;10.85;;
49392;SDS011;35268;42.642;23.308;2024-02-21T07:46:40;21.08;;;12.23;;
49392;SDS011;35268;42.642;23.308;2024-02-21T07:49:05;23.70;;;12.43;;
49392;SDS011;35268;42.642;23.308;2024-02-21T07:51:31;27.73;;;13.48;;
49392;SDS011;35268;42.642;23.308;2024-02-21T07:53:56;20.77;;;11.95;;
49392;SDS011;35268;42.642;23.308;2024-02-21T07:56:22;24.45;;;12.05;;
49392;SDS011;35268;42.642;23.308;2024-02-21T07:58:47;25.58;;;12.93;;
49392;SDS011;35268;42.642;23.308;2024-02-21T08:01:17;23.80;;;12.38;;
49392;SDS011;35268;42.642;23.308;2024-02-21T08:03:45;25.25;;;12.45;;
49392;SDS011;35268;42.642;23.308;2024-02-21T08:06:12;26.77;;;13.13;;
49392;SDS011;35268;42.642;23.308;2024-02-21T08:08:38;20.13;;;11.40;;
49392;SDS011;35268;42.642;23.308;2024-02-21T08:11:03;22.55;;;12.07;;
49392;SDS011;35268;42.642;23.308;2024-02-21T08:13:29;21.45;;;12.40;;
49392;SDS011;35268;42.642;23.308;2024-02-21T08:15:54;21.23;;;11.45;;
49392;SDS011;35268;42.642;23.308;2024-02-21T08:18:20;23.88;;;12.55;;
49392;SDS011;35268;42.642;23.308;2024-02-21T08:20:45;23.08;;;11.73;;
49392;SDS011;35268;42.642;23.308;2024-02-21T08:23:11;21.20;;;11.65;;
49392;SDS011;35268;42.642;23.308;2024-02-21T08:25:36;21.17;;;11.90;;
49392;SDS011;35268;42.642;23.308;2024-02-21T08:28:02;18.80;;;11.35;;
49392;SDS011;35268;42.642;23.308;2024-02-21T08:30:27;22.52;;;12.38;;
49392;SDS011;35268;42.642;23.308;2024-02-21T08:32:53;22.67;;;11.90;;
49392;SDS011;35268;42.642;23.308;2024-02-21T08:35:21;21.20;;;11.10;;
49392;SDS011;35268;42.642;23.308;2024-02-21T08:37:49;15.98;;;9.10;;
49392;SDS011;35268;42.642;23.308;2024-02-21T08:40:15;15.85;;;8.98;;
49392;SDS011;35268;42.642;23.308;2024-02-21T08:42:46;14.52;;;8.48;;
49392;SDS011;35268;42.642;23.308;2024-02-21T08:45:12;14.20;;;8.48;;
49392;SDS011;35268;42.642;23.308;2024-02-21T08:47:40;16.17;;;8.38;;
49392;SDS011;35268;42.642;23.308;2024-02-21T08:50:07;15.77;;;8.85;;
49392;SDS011;35268;42.642;23.308;2024-02-21T08:52:34;16.92;;;8.82;;
49392;SDS011;35268;42.642;23.308;2024-02-21T08:55:00;11.95;;;7.63;;
49392;SDS011;35268;42.642;23.308;2024-02-21T08:57:26;12.50;;;7.47;;
49392;SDS011;35268;42.642;23.308;2024-02-21T08:59:52;19.63;;;8.95;;
49392;SDS011;35268;42.642;23.308;2024-02-21T09:02:17;24.17;;;9.85;;
49392;SDS011;35268;42.642;23.308;2024-02-21T09:04:43;13.98;;;8.43;;
49392;SDS011;35268;42.642;23.308;2024-02-21T09:07:11;20.52;;;9.07;;
49392;SDS011;35268;42.642;23.308;2024-02-21T09:09:37;12.32;;;8.23;;
49392;SDS011;35268;42.642;23.308;2024-02-21T09:12:06;12.55;;;8.23;;
49392;SDS011;35268;42.642;23.308;2024-02-21T09:14:32;14.20;;;8.70;;
49392;SDS011;35268;42.642;23.308;2024-02-21T09:16:58;20.60;;;9.05;;
49392;SDS011;35268;42.642;23.308;2024-02-21T09:19:24;18.05;;;9.63;;
49392;SDS011;35268;42.642;23.308;2024-02-21T09:21:49;18.45;;;10.27;;
49392;SDS011;35268;42.642;23.308;2024-02-21T09:24:14;15.93;;;9.43;;
49392;SDS011;35268;42.642;23.308;2024-02-21T09:26:40;13.93;;;8.30;;
49392;SDS011;35268;42.642;23.308;2024-02-21T09:29:05;18.88;;;8.45;;
49392;SDS011;35268;42.642;23.308;2024-02-21T09:31:31;19.25;;;8.98;;
49392;SDS011;35268;42.642;23.308;2024-02-21T09:33:56;19.50;;;9.57;;
49392;SDS011;35268;42.642;23.308;2024-02-21T09:36:22;14.25;;;8.35;;
49392;SDS011;35268;42.642;23.308;2024-02-21T09:38:47;20.55;;;8.50;;
49392;SDS011;35268;42.642;23.308;2024-02-21T09:41:16;22.25;;;9.70;;
49392;SDS011;35268;42.642;23.308;2024-02-21T09:43:43;18.60;;;8.05;;
49392;SDS011;35268;42.642;23.308;2024-02-21T09:46:17;17.55;;;8.50;;
49392;SDS011;35268;42.642;23.308;2024-02-21T09:51:20;13.73;;;8.18;;
49392;SDS011;35268;42.642;23.308;2024-02-21T09:53:46;16.05;;;7.68;;
49392;SDS011;35268;42.642;23.308;2024-02-21T09:56:12;18.25;;;9.20;;
49392;SDS011;35268;42.642;23.308;2024-02-21T09:58:38;16.77;;;9.13;;
49392;SDS011;35268;42.642;23.308;2024-02-21T10:01:04;21.92;;;9.43;;
49392;SDS011;35268;42.642;23.308;2024-02-21T10:03:31;18.15;;;9.73;;
49392;SDS011;35268;42.642;23.308;2024-02-21T10:05:58;20.70;;;9.40;;
49392;SDS011;35268;42.642;23.308;2024-02-21T10:08:26;19.27;;;9.40;;
49392;SDS011;35268;42.642;23.308;2024-02-21T10:10:51;19.08;;;9.98;;
49392;SDS011;35268;42.642;23.308;2024-02-21T10:13:27;14.35;;;8.07;;
49392;SDS011;35268;42.642;23.308;2024-02-21T10:16:06;14.13;;;8.40;;
49392;SDS011;35268;42.642;23.308;2024-02-21T10:18:36;12.45;;;6.80;;
49392;SDS011;35268;42.642;23.308;2024-02-21T10:21:02;10.65;;;6.97;;
49392;SDS011;35268;42.642;23.308;2024-02-21T10:23:48;12.48;;;7.10;;
49392;SDS011;35268;42.642;23.308;2024-02-21T10:28:40;9.45;;;5.80;;
49392;SDS011;35268;42.642;23.308;2024-02-21T10:31:07;12.63;;;6.45;;
49392;SDS011;35268;42.642;23.308;2024-02-21T10:33:34;11.02;;;5.90;;
49392;SDS011;35268;42.642;23.308;2024-02-21T10:36:09;12.98;;;7.03;;
49392;SDS011;35268;42.642;23.308;2024-02-21T10:38:36;9.73;;;6.38;;
49392;SDS011;35268;42.642;23.308;2024-02-21T10:41:02;11.80;;;6.00;;
49392;SDS011;35268;42.642;23.308;2024-02-21T10:43:30;8.60;;;5.72;;
49392;SDS011;35268;42.642;23.308;2024-02-21T10:45:59;9.95;;;5.90;;
49392;SDS011;35268;42.642;23.308;2024-02-21T10:48:30;9.00;;;5.18;;
49392;SDS011;35268;42.642;23.308;2024-02-21T10:51:16;9.93;;;5.68;;
49392;SDS011;35268;42.642;23.308;2024-02-21T10:56:21;9.00;;;5.60;;
49392;SDS011;35268;42.642;23.308;2024-02-21T10:58:48;12.82;;;5.30;;
49392;SDS011;35268;42.642;23.308;2024-02-21T11:01:14;9.77;;;5.50;;
49392;SDS011;35268;42.642;23.308;2024-02-21T11:03:43;6.75;;;4.80;;
49392;SDS011;35268;42.642;23.308;2024-02-21T11:06:14;6.03;;;3.95;;
49392;SDS011;35268;42.642;23.308;2024-02-21T11:08:42;8.95;;;5.18;;
49392;SDS011;35268;42.642;23.308;2024-02-21T11:11:07;9.05;;;5.13;;
49392;SDS011;35268;42.642;23.308;2024-02-21T11:13:36;10.40;;;5.82;;
49392;SDS011;35268;42.642;23.308;2024-02-21T11:16:09;9.02;;;4.50;;
49392;SDS011;35268;42.642;23.308;2024-02-21T11:18:38;8.90;;;5.25;;
49392;SDS011;35268;42.642;23.308;2024-02-21T11:21:04;7.20;;;4.85;;
49392;SDS011;35268;42.642;23.308;2024-02-21T11:23:30;9.07;;;4.50;;
49392;SDS011;35268;42.642;23.308;2024-02-21T11:26:06;5.10;;;3.17;;
49392;SDS011;35268;42.642;23.308;2024-02-21T11:28:35;9.50;;;3.78;;
49392;SDS011;35268;42.642;23.308;2024-02-21T11:31:07;9.60;;;4.32;;
49392;SDS011;35268;42.642;23.308;2024-02-21T11:33:34;7.95;;;4.68;;
49392;SDS011;35268;42.642;23.308;2024-02-21T11:36:00;6.43;;;3.95;;
49392;SDS011;35268;42.642;23.308;2024-02-21T11:38:29;12.00;;;4.30;;
49392;SDS011;35268;42.642;23.308;2024-02-21T11:40:58;15.18;;;4.10;;
49392;SDS011;35268;42.642;23.308;2024-02-21T11:43:23;6.45;;;3.88;;
49392;SDS011;35268;42.642;23.308;2024-02-21T11:45:48;5.47;;;3.35;;
49392;SDS011;35268;42.642;23.308;2024-02-21T11:48:17;6.75;;;3.97;;
49392;SDS011;35268;42.642;23.308;2024-02-21T11:50:42;8.35;;;3.78;;
49392;SDS011;35268;42.642;23.308;2024-02-21T11:53:18;20.00;;;4.85;;
49392;SDS011;35268;42.642;23.308;2024-02-21T11:55:43;8.50;;;4.05;;
49392;SDS011;35268;42.642;23.308;2024-02-21T11:58:11;6.03;;;3.67;;
49392;SDS011;35268;42.642;23.308;2024-02-21T12:00:36;6.43;;;3.92;;
49392;SDS011;35268;42.642;23.308;2024-02-21T12:03:02;5.53;;;3.72;;
49392;SDS011;35268;42.642;23.308;2024-02-21T12:05:29;6.43;;;3.72;;
49392;SDS011;35268;42.642;23.308;2024-02-21T12:07:55;6.57;;;3.88;;
49392;SDS011;35268;42.642;23.308;2024-02-21T12:10:23;7.53;;;3.88;;
49392;SDS011;35268;42.642;23.308;2024-02-21T12:13:09;11.70;;;4.68;;
49392;SDS011;35268;42.642;23.308;2024-02-21T12:15:35;10.10;;;4.70;;
49392;SDS011;35268;42.642;23.308;2024-02-21T12:18:00;8.15;;;4.55;;
49392;SDS011;35268;42.642;23.308;2024-02-21T12:20:26;18.58;;;6.05;;
49392;SDS011;35268;42.642;23.308;2024-02-21T12:22:52;9.73;;;4.43;;
49392;SDS011;35268;42.642;23.308;2024-02-21T12:25:20;8.65;;;4.65;;
49392;SDS011;35268;42.642;23.308;2024-02-21T12:27:51;11.13;;;4.20;;
49392;SDS011;35268;42.642;23.308;2024-02-21T12:30:17;8.70;;;4.65;;
49392;SDS011;35268;42.642;23.308;2024-02-21T12:32:43;9.98;;;4.03;;
49392;SDS011;35268;42.642;23.308;2024-02-21T12:35:08;8.48;;;4.88;;
49392;SDS011;35268;42.642;23.308;2024-02-21T12:37:34;12.27;;;5.47;;
49392;SDS011;35268;42.642;23.308;2024-02-21T12:39:59;11.43;;;4.93;;
49392;SDS011;35268;42.642;23.308;2024-02-21T12:42:25;12.05;;;5.40;;
49392;SDS011;35268;42.642;23.308;2024-02-21T12:44:51;9.30;;;4.60;;
49392;SDS011;35268;42.642;23.308;2024-02-21T12:47:17;14.20;;;5.13;;
49392;SDS011;35268;42.642;23.308;2024-02-21T12:49:44;7.72;;;4.60;;
49392;SDS011;35268;42.642;23.308;2024-02-21T12:52:10;13.25;;;5.53;;
49392;SDS011;35268;42.642;23.308;2024-02-21T12:54:36;9.23;;;4.50;;
49392;SDS011;35268;42.642;23.308;2024-02-21T12:57:01;5.90;;;3.70;;
49392;SDS011;35268;42.642;23.308;2024-02-21T12:59:28;6.25;;;4.30;;
49392;SDS011;35268;42.642;23.308;2024-02-21T13:01:54;8.70;;;4.22;;
49392;SDS011;35268;42.642;23.308;2024-02-21T13:04:19;6.80;;;3.85;;
49392;SDS011;35268;42.642;23.308;2024-02-21T13:06:46;9.32;;;3.70;;
49392;SDS011;35268;42.642;23.308;2024-02-21T13:09:12;5.72;;;3.42;;
49392;SDS011;35268;42.642;23.308;2024-02-21T13:11:38;8.45;;;3.05;;
49392;SDS011;35268;42.642;23.308;2024-02-21T13:14:05;5.63;;;3.35;;
49392;SDS011;35268;42.642;23.308;2024-02-21T13:16:31;7.93;;;4.03;;
49392;SDS011;35268;42.642;23.308;2024-02-21T13:18:56;9.75;;;3.97;;
49392;SDS011;35268;42.642;23.308;2024-02-21T13:21:22;7.78;;;3.65;;
49392;SDS011;35268;42.642;23.308;2024-02-21T13:23:47;9.20;;;4.53;;
49392;SDS011;35268;42.642;23.308;2024-02-21T13:26:13;11.93;;;5.38;;
49392;SDS011;35268;42.642;23.308;2024-02-21T13:28:39;11.73;;;6.38;;
49392;SDS011;35268;42.642;23.308;2024-02-21T13:31:04;15.85;;;6.00;;
49392;SDS011;35268;42.642;23.308;2024-02-21T13:33:30;10.75;;;5.50;;
49392;SDS011;35268;42.642;23.308;2024-02-21T13:35:55;13.38;;;6.25;;
49392;SDS011;35268;42.642;23.308;2024-02-21T13:38:20;14.32;;;6.18;;
49392;SDS011;35268;42.642;23.308;2024-02-21T13:40:46;20.75;;;6.63;;
49392;SDS011;35268;42.642;23.308;2024-02-21T13:43:11;16.55;;;6.60;;
49392;SDS011;35268;42.642;23.308;2024-02-21T13:45:37;10.13;;;5.55;;
49392;SDS011;35268;42.642;23.308;2024-02-21T13:48:03;10.23;;;4.95;;
49392;SDS011;35268;42.642;23.308;2024-02-21T13:50:31;7.47;;;4.47;;
49392;SDS011;35268;42.642;23.308;2024-02-21T13:52:57;6.10;;;3.55;;
49392;SDS011;35268;42.642;23.308;2024-02-21T13:55:22;9.82;;;4.47;;
49392;SDS011;35268;42.642;23.308;2024-02-21T13:57:51;10.70;;;4.55;;
49392;SDS011;35268;42.642;23.308;2024-02-21T14:00:16;9.85;;;4.22;;
49392;SDS011;35268;42.642;23.308;2024-02-21T14:02:43;8.13;;;4.30;;
49392;SDS011;35268;42.642;23.308;2024-02-21T14:05:09;7.90;;;4.07;;
49392;SDS011;35268;42.642;23.308;2024-02-21T14:07:35;11.23;;;5.50;;
49392;SDS011;35268;42.642;23.308;2024-02-21T14:10:00;10.25;;;5.97;;
49392;SDS011;35268;42.642;23.308;2024-02-21T14:12:26;13.10;;;6.50;;
49392;SDS011;35268;42.642;23.308;2024-02-21T14:14:51;9.85;;;5.75;;
49392;SDS011;35268;42.642;23.308;2024-02-21T14:17:17;9.55;;;4.82;;
49392;SDS011;35268;42.642;23.308;2024-02-21T14:19:43;8.23;;;5.53;;
49392;SDS011;35268;42.642;23.308;2024-02-21T14:22:08;9.90;;;5.93;;
49392;SDS011;35268;42.642;23.308;2024-02-21T14:24:36;9.40;;;5.25;;